sensor_id;sensor_type;location;lat;lon;timestamp;pressure;altitude;pressure_sealevel;temperature;humidity
65157;BME280;52745;49.794;18.258;2023-01-27T00:02:18;-15928.06;;;-0.35;80.87
65157;BME280;52745;49.794;18.258;2023-01-27T00:04:45;-15925.03;;;-0.46;81.56
65157;BME280;52745;49.794;18.258;2023-01-27T00:07:12;-15925.59;;;-0.44;81.48
65157;BME280;52745;49.794;18.258;2023-01-27T00:09:39;-15925.44;;;-0.45;82.03
65157;BME280;52745;49.794;18.258;2023-01-27T00:12:17;-15927.66;;;-0.36;81.58
65157;BME280;52745;49.794;18.258;2023-01-27T00:15:04;-15928.59;;;-0.33;82.11
65157;BME280;52745;49.794;18.258;2023-01-27T00:17:32;-15929.28;;;-0.30;82.32
65157;BME280;52745;49.794;18.258;2023-01-27T00:19:59;-15929.69;;;-0.29;81.63
65157;BME280;52745;49.794;18.258;2023-01-27T00:22:26;-15932.16;;;-0.19;82.01
65157;BME280;52745;49.794;18.258;2023-01-27T00:25:11;-15932.72;;;-0.17;81.49
65157;BME280;52745;49.794;18.258;2023-01-27T00:27:38;-15932.44;;;-0.18;81.78
65157;BME280;52745;49.794;18.258;2023-01-27T00:30:06;-15932.56;;;-0.18;81.68
65157;BME280;52745;49.794;18.258;2023-01-27T00:32:33;-15930.78;;;-0.25;82.20
65157;BME280;52745;49.794;18.258;2023-01-27T00:35:18;-15928.34;;;-0.34;82.95
65157;BME280;52745;49.794;18.258;2023-01-27T00:37:46;-15929.69;;;-0.29;82.47
65157;BME280;52745;49.794;18.258;2023-01-27T00:40:14;-15929.97;;;-0.28;83.16
65157;BME280;52745;49.794;18.258;2023-01-27T00:42:42;-15925.88;;;-0.43;83.70
65157;BME280;52745;49.794;18.258;2023-01-27T00:45:10;-15926.41;;;-0.41;83.85
65157;BME280;52745;49.794;18.258;2023-01-27T00:47:55;-15928.19;;;-0.34;83.95
65157;BME280;52745;49.794;18.258;2023-01-27T00:50:22;-15928.34;;;-0.34;84.29
65157;BME280;52745;49.794;18.258;2023-01-27T00:52:48;-15925.88;;;-0.43;84.69
65157;BME280;52745;49.794;18.258;2023-01-27T00:55:18;-15926.00;;;-0.43;84.69
65157;BME280;52745;49.794;18.258;2023-01-27T00:57:46;-15925.59;;;-0.44;84.85
65157;BME280;52745;49.794;18.258;2023-01-27T01:00:13;-15926.53;;;-0.40;85.46
65157;BME280;52745;49.794;18.258;2023-01-27T01:02:40;-15926.41;;;-0.41;85.22
65157;BME280;52745;49.794;18.258;2023-01-27T01:05:08;-15930.66;;;-0.25;84.98
65157;BME280;52745;49.794;18.258;2023-01-27T01:07:35;-15929.16;;;-0.31;84.89
65157;BME280;52745;49.794;18.258;2023-01-27T01:10:02;-15929.16;;;-0.31;85.03
65157;BME280;52745;49.794;18.258;2023-01-27T01:12:28;-15930.13;;;-0.27;85.25
65157;BME280;52745;49.794;18.258;2023-01-27T01:14:55;-15931.34;;;-0.23;84.85
65157;BME280;52745;49.794;18.258;2023-01-27T01:17:22;-15935.72;;;-0.06;84.15
65157;BME280;52745;49.794;18.258;2023-01-27T01:19:49;-15936.69;;;-0.03;84.13
65157;BME280;52745;49.794;18.258;2023-01-27T01:22:15;-15939.72;;;0.09;83.86
65157;BME280;52745;49.794;18.258;2023-01-27T01:24:42;-15939.84;;;0.09;83.32
65157;BME280;52745;49.794;18.258;2023-01-27T01:27:09;-15939.72;;;0.09;83.62
65157;BME280;52745;49.794;18.258;2023-01-27T01:29:36;-15937.09;;;-0.01;83.86
65157;BME280;52745;49.794;18.258;2023-01-27T01:32:03;-15935.59;;;-0.07;83.81
65157;BME280;52745;49.794;18.258;2023-01-27T01:34:31;-15932.56;;;-0.18;84.69
65157;BME280;52745;49.794;18.258;2023-01-27T01:36:58;-15930.66;;;-0.25;84.85
65157;BME280;52745;49.794;18.258;2023-01-27T01:39:25;-15932.72;;;-0.17;84.84
65157;BME280;52745;49.794;18.258;2023-01-27T01:41:51;-15931.91;;;-0.21;85.30
65157;BME280;52745;49.794;18.258;2023-01-27T01:44:20;-15936.97;;;-0.02;85.34
65157;BME280;52745;49.794;18.258;2023-01-27T01:46:47;-15937.09;;;-0.01;85.30
65157;BME280;52745;49.794;18.258;2023-01-27T01:49:15;-15936.56;;;-0.03;85.36
65157;BME280;52745;49.794;18.258;2023-01-27T01:51:51;-15937.25;;;-0.01;84.58
65157;BME280;52745;49.794;18.258;2023-01-27T01:54:32;-15932.31;;;-0.19;85.32
65157;BME280;52745;49.794;18.258;2023-01-27T01:57:14;-15929.44;;;-0.30;85.99
65157;BME280;52745;49.794;18.258;2023-01-27T01:59:50;-15929.84;;;-0.28;86.29
65157;BME280;52745;49.794;18.258;2023-01-27T02:02:21;-15931.34;;;-0.23;86.47
65157;BME280;52745;49.794;18.258;2023-01-27T02:04:53;-15936.56;;;-0.03;85.85
65157;BME280;52745;49.794;18.258;2023-01-27T02:07:34;-15935.47;;;-0.07;85.88
65157;BME280;52745;49.794;18.258;2023-01-27T02:10:03;-15932.31;;;-0.19;85.83
65157;BME280;52745;49.794;18.258;2023-01-27T02:12:34;-15928.34;;;-0.34;86.65
65157;BME280;52745;49.794;18.258;2023-01-27T02:15:02;-15928.19;;;-0.34;87.35
65157;BME280;52745;49.794;18.258;2023-01-27T02:17:29;-15928.19;;;-0.34;86.90
65157;BME280;52745;49.794;18.258;2023-01-27T02:28:05;-15929.00;;;-0.31;88.07
65157;BME280;52745;49.794;18.258;2023-01-27T02:30:33;-15928.88;;;-0.32;87.77
65157;BME280;52745;49.794;18.258;2023-01-27T02:32:59;-15930.94;;;-0.24;87.70
65157;BME280;52745;49.794;18.258;2023-01-27T02:38:08;-15931.63;;;-0.22;87.63
65157;BME280;52745;49.794;18.258;2023-01-27T02:40:36;-15929.44;;;-0.30;88.34
65157;BME280;52745;49.794;18.258;2023-01-27T02:43:05;-15929.00;;;-0.31;88.35
65157;BME280;52745;49.794;18.258;2023-01-27T02:45:31;-15927.78;;;-0.36;88.27
65157;BME280;52745;49.794;18.258;2023-01-27T02:47:59;-15922.31;;;-0.56;89.08
65157;BME280;52745;49.794;18.258;2023-01-27T02:50:26;-15922.16;;;-0.57;89.76
65157;BME280;52745;49.794;18.258;2023-01-27T02:52:52;-15920.94;;;-0.61;89.97
65157;BME280;52745;49.794;18.258;2023-01-27T02:55:21;-15920.78;;;-0.62;90.45
65157;BME280;52745;49.794;18.258;2023-01-27T02:57:48;-15919.56;;;-0.67;90.87
65157;BME280;52745;49.794;18.258;2023-01-27T03:00:31;-15920.66;;;-0.63;90.48
65157;BME280;52745;49.794;18.258;2023-01-27T03:02:58;-15919.69;;;-0.66;90.67
65157;BME280;52745;49.794;18.258;2023-01-27T03:05:25;-15920.66;;;-0.63;91.07
65157;BME280;52745;49.794;18.258;2023-01-27T03:07:51;-15925.44;;;-0.45;90.69
65157;BME280;52745;49.794;18.258;2023-01-27T03:10:19;-15922.84;;;-0.54;90.92
65157;BME280;52745;49.794;18.258;2023-01-27T03:12:46;-15921.47;;;-0.59;90.90
65157;BME280;52745;49.794;18.258;2023-01-27T03:15:13;-15922.03;;;-0.57;90.84
65157;BME280;52745;49.794;18.258;2023-01-27T03:18:09;-15921.19;;;-0.60;91.66
65157;BME280;52745;49.794;18.258;2023-01-27T03:20:41;-15921.75;;;-0.58;91.82
65157;BME280;52745;49.794;18.258;2023-01-27T03:23:09;-15925.31;;;-0.45;91.22
65157;BME280;52745;49.794;18.258;2023-01-27T03:25:40;-15922.84;;;-0.54;91.91
65157;BME280;52745;49.794;18.258;2023-01-27T03:28:08;-15925.03;;;-0.46;91.40
65157;BME280;52745;49.794;18.258;2023-01-27T03:30:46;-15923.66;;;-0.51;91.06
65157;BME280;52745;49.794;18.258;2023-01-27T03:33:18;-15919.97;;;-0.65;92.06
65157;BME280;52745;49.794;18.258;2023-01-27T03:35:57;-15920.94;;;-0.61;92.11
65157;BME280;52745;49.794;18.258;2023-01-27T03:38:46;-15918.19;;;-0.72;92.94
65157;BME280;52745;49.794;18.258;2023-01-27T03:41:32;-15917.09;;;-0.76;93.51
65157;BME280;52745;49.794;18.258;2023-01-27T03:44:18;-15917.38;;;-0.75;93.60
65157;BME280;52745;49.794;18.258;2023-01-27T03:47:03;-15915.59;;;-0.81;93.91
65157;BME280;52745;49.794;18.258;2023-01-27T03:49:30;-15912.16;;;-0.94;94.54
65157;BME280;52745;49.794;18.258;2023-01-27T03:51:56;-15912.44;;;-0.93;94.94
65157;BME280;52745;49.794;18.258;2023-01-27T03:54:24;-15912.16;;;-0.94;95.24
65157;BME280;52745;49.794;18.258;2023-01-27T03:56:51;-15909.97;;;-1.02;95.50
65157;BME280;52745;49.794;18.258;2023-01-27T03:59:18;-15907.50;;;-1.12;96.21
65157;BME280;52745;49.794;18.258;2023-01-27T04:01:44;-15910.78;;;-0.99;96.50
65157;BME280;52745;49.794;18.258;2023-01-27T04:04:11;-15907.22;;;-1.13;96.76
65157;BME280;52745;49.794;18.258;2023-01-27T04:06:57;-15907.78;;;-1.11;96.90
65157;BME280;52745;49.794;18.258;2023-01-27T04:09:28;-15908.59;;;-1.08;97.38
65157;BME280;52745;49.794;18.258;2023-01-27T04:11:58;-15913.25;;;-0.90;97.13
65157;BME280;52745;49.794;18.258;2023-01-27T04:14:38;-15914.75;;;-0.85;96.13
65157;BME280;52745;49.794;18.258;2023-01-27T04:17:13;-15916.53;;;-0.78;95.96
65157;BME280;52745;49.794;18.258;2023-01-27T04:19:40;-15914.63;;;-0.85;95.55
65157;BME280;52745;49.794;18.258;2023-01-27T04:22:09;-15915.03;;;-0.84;95.75
65157;BME280;52745;49.794;18.258;2023-01-27T04:24:36;-15913.53;;;-0.89;96.20
65157;BME280;52745;49.794;18.258;2023-01-27T04:27:06;-15910.91;;;-0.99;96.13
65157;BME280;52745;49.794;18.258;2023-01-27T04:29:35;-15910.38;;;-1.01;96.72
65157;BME280;52745;49.794;18.258;2023-01-27T04:32:04;-15909.69;;;-1.03;96.66
65157;BME280;52745;49.794;18.258;2023-01-27T04:34:35;-15911.34;;;-0.97;96.82
65157;BME280;52745;49.794;18.258;2023-01-27T04:37:03;-15915.16;;;-0.83;96.80
65157;BME280;52745;49.794;18.258;2023-01-27T04:39:31;-15917.50;;;-0.74;96.19
65157;BME280;52745;49.794;18.258;2023-01-27T04:41:58;-15919.41;;;-0.67;95.56
65157;BME280;52745;49.794;18.258;2023-01-27T04:44:25;-15922.44;;;-0.56;95.14
65157;BME280;52745;49.794;18.258;2023-01-27T04:46:52;-15919.97;;;-0.65;95.42
65157;BME280;52745;49.794;18.258;2023-01-27T04:49:20;-15921.75;;;-0.58;95.24
65157;BME280;52745;49.794;18.258;2023-01-27T04:51:46;-15923.66;;;-0.51;94.78
65157;BME280;52745;49.794;18.258;2023-01-27T04:54:14;-15925.88;;;-0.43;94.54
65157;BME280;52745;49.794;18.258;2023-01-27T04:56:53;-15926.81;;;-0.39;94.81
65157;BME280;52745;49.794;18.258;2023-01-27T04:59:21;-15926.81;;;-0.39;94.54
65157;BME280;52745;49.794;18.258;2023-01-27T05:01:48;-15923.94;;;-0.50;94.65
65157;BME280;52745;49.794;18.258;2023-01-27T05:04:14;-15922.56;;;-0.55;95.01
65157;BME280;52745;49.794;18.258;2023-01-27T05:06:41;-15917.91;;;-0.73;95.11
65157;BME280;52745;49.794;18.258;2023-01-27T05:09:08;-15919.56;;;-0.67;95.78
65157;BME280;52745;49.794;18.258;2023-01-27T05:11:35;-15916.69;;;-0.77;95.77
65157;BME280;52745;49.794;18.258;2023-01-27T05:14:02;-15916.41;;;-0.78;96.49
65157;BME280;52745;49.794;18.258;2023-01-27T05:16:29;-15917.22;;;-0.75;96.07
65157;BME280;52745;49.794;18.258;2023-01-27T05:18:55;-15916.81;;;-0.77;96.82
65157;BME280;52745;49.794;18.258;2023-01-27T05:21:24;-15915.16;;;-0.83;96.57
65157;BME280;52745;49.794;18.258;2023-01-27T05:23:53;-15916.00;;;-0.80;96.97
65157;BME280;52745;49.794;18.258;2023-01-27T05:26:23;-15913.38;;;-0.90;97.12
65157;BME280;52745;49.794;18.258;2023-01-27T05:28:51;-15911.88;;;-0.95;97.24
65157;BME280;52745;49.794;18.258;2023-01-27T05:31:23;-15913.38;;;-0.90;97.71
65157;BME280;52745;49.794;18.258;2023-01-27T05:33:52;-15911.59;;;-0.96;98.12
65157;BME280;52745;49.794;18.258;2023-01-27T05:36:21;-15910.78;;;-0.99;98.37
65157;BME280;52745;49.794;18.258;2023-01-27T05:38:48;-15912.97;;;-0.91;97.61
65157;BME280;52745;49.794;18.258;2023-01-27T05:41:16;-15910.91;;;-0.99;97.80
65157;BME280;52745;49.794;18.258;2023-01-27T05:43:45;-15910.38;;;-1.01;97.56
65157;BME280;52745;49.794;18.258;2023-01-27T05:46:20;-15912.69;;;-0.92;97.58
65157;BME280;52745;49.794;18.258;2023-01-27T05:48:49;-15911.75;;;-0.96;97.47
65157;BME280;52745;49.794;18.258;2023-01-27T05:51:19;-15911.75;;;-0.96;97.26
65157;BME280;52745;49.794;18.258;2023-01-27T05:53:46;-15910.66;;;-1.00;97.05
65157;BME280;52745;49.794;18.258;2023-01-27T05:56:16;-15910.78;;;-0.99;97.08
65157;BME280;52745;49.794;18.258;2023-01-27T05:58:44;-15912.97;;;-0.91;96.71
65157;BME280;52745;49.794;18.258;2023-01-27T06:01:17;-15914.34;;;-0.86;96.72
65157;BME280;52745;49.794;18.258;2023-01-27T06:03:45;-15914.47;;;-0.86;96.17
65157;BME280;52745;49.794;18.258;2023-01-27T06:06:14;-15914.63;;;-0.85;95.94
65157;BME280;52745;49.794;18.258;2023-01-27T06:08:41;-15915.44;;;-0.82;96.11
65157;BME280;52745;49.794;18.258;2023-01-27T06:11:08;-15918.88;;;-0.69;95.85
65157;BME280;52745;49.794;18.258;2023-01-27T06:13:35;-15922.97;;;-0.54;95.22
65157;BME280;52745;49.794;18.258;2023-01-27T06:16:09;-15923.41;;;-0.52;95.08
65157;BME280;52745;49.794;18.258;2023-01-27T06:18:37;-15927.50;;;-0.37;94.08
65157;BME280;52745;49.794;18.258;2023-01-27T06:21:07;-15927.50;;;-0.37;93.40
65157;BME280;52745;49.794;18.258;2023-01-27T06:23:34;-15927.09;;;-0.38;93.12
65157;BME280;52745;49.794;18.258;2023-01-27T06:26:10;-15925.19;;;-0.46;93.75
65157;BME280;52745;49.794;18.258;2023-01-27T06:28:38;-15924.09;;;-0.50;93.13
65157;BME280;52745;49.794;18.258;2023-01-27T06:31:06;-15923.94;;;-0.50;93.36
65157;BME280;52745;49.794;18.258;2023-01-27T06:33:33;-15920.53;;;-0.63;93.37
65157;BME280;52745;49.794;18.258;2023-01-27T06:36:01;-15920.09;;;-0.65;93.77
65157;BME280;52745;49.794;18.258;2023-01-27T06:38:29;-15921.88;;;-0.58;94.04
65157;BME280;52745;49.794;18.258;2023-01-27T06:40:56;-15920.78;;;-0.62;94.12
65157;BME280;52745;49.794;18.258;2023-01-27T06:43:22;-15916.81;;;-0.77;94.94
65157;BME280;52745;49.794;18.258;2023-01-27T06:45:50;-15919.56;;;-0.67;100.00
65157;BME280;52745;49.794;18.258;2023-01-27T06:48:17;-15925.31;;;-0.45;100.00
65157;BME280;52745;49.794;18.258;2023-01-27T06:50:44;-15924.09;;;-0.50;98.77
65157;BME280;52745;49.794;18.258;2023-01-27T06:53:10;-15927.09;;;-0.38;98.53
65157;BME280;52745;49.794;18.258;2023-01-27T06:55:37;-15927.91;;;-0.35;96.91
65157;BME280;52745;49.794;18.258;2023-01-27T06:58:07;-15928.47;;;-0.33;96.64
65157;BME280;52745;49.794;18.258;2023-01-27T07:00:35;-15924.75;;;-0.47;95.68
65157;BME280;52745;49.794;18.258;2023-01-27T07:03:02;-15931.34;;;-0.23;96.79
65157;BME280;52745;49.794;18.258;2023-01-27T07:05:30;-15934.09;;;-0.12;95.60
65157;BME280;52745;49.794;18.258;2023-01-27T07:07:57;-15932.44;;;-0.18;94.30
65157;BME280;52745;49.794;18.258;2023-01-27T07:10:24;-15929.97;;;-0.28;94.07
65157;BME280;52745;49.794;18.258;2023-01-27T07:12:51;-15925.72;;;-0.44;94.59
65157;BME280;52745;49.794;18.258;2023-01-27T07:15:18;-15926.81;;;-0.39;94.65
65157;BME280;52745;49.794;18.258;2023-01-27T07:17:45;-15925.44;;;-0.45;94.48
65157;BME280;52745;49.794;18.258;2023-01-27T07:20:12;-15924.91;;;-0.47;95.01
65157;BME280;52745;49.794;18.258;2023-01-27T07:22:39;-15924.09;;;-0.50;95.36
65157;BME280;52745;49.794;18.258;2023-01-27T07:25:06;-15924.22;;;-0.49;95.27
65157;BME280;52745;49.794;18.258;2023-01-27T07:27:33;-15924.09;;;-0.50;94.54
65157;BME280;52745;49.794;18.258;2023-01-27T07:30:00;-15924.22;;;-0.49;94.47
65157;BME280;52745;49.794;18.258;2023-01-27T07:32:26;-15925.88;;;-0.43;93.54
65157;BME280;52745;49.794;18.258;2023-01-27T07:34:53;-15928.59;;;-0.33;93.73
65157;BME280;52745;49.794;18.258;2023-01-27T07:37:20;-15932.44;;;-0.18;93.44
65157;BME280;52745;49.794;18.258;2023-01-27T07:39:47;-15933.53;;;-0.14;93.18
65157;BME280;52745;49.794;18.258;2023-01-27T07:42:13;-15931.50;;;-0.22;93.26
65157;BME280;52745;49.794;18.258;2023-01-27T07:44:40;-15933.28;;;-0.15;92.41
65157;BME280;52745;49.794;18.258;2023-01-27T07:47:07;-15934.91;;;-0.09;92.40
65157;BME280;52745;49.794;18.258;2023-01-27T07:49:34;-15933.53;;;-0.14;92.76
65157;BME280;52745;49.794;18.258;2023-01-27T07:52:00;-15931.63;;;-0.22;92.69
65157;BME280;52745;49.794;18.258;2023-01-27T07:54:27;-15931.34;;;-0.23;92.71
65157;BME280;52745;49.794;18.258;2023-01-27T07:56:54;-15931.75;;;-0.21;94.10
65157;BME280;52745;49.794;18.258;2023-01-27T07:59:21;-15936.56;;;-0.03;95.76
65157;BME280;52745;49.794;18.258;2023-01-27T08:01:47;-15939.28;;;0.07;95.37
65157;BME280;52745;49.794;18.258;2023-01-27T08:04:14;-15941.22;;;0.14;93.90
65157;BME280;52745;49.794;18.258;2023-01-27T08:06:44;-15943.41;;;0.23;93.80
65157;BME280;52745;49.794;18.258;2023-01-27T08:09:11;-15947.78;;;0.39;93.05
65157;BME280;52745;49.794;18.258;2023-01-27T08:11:38;-15943.97;;;0.25;91.98
65157;BME280;52745;49.794;18.258;2023-01-27T08:14:05;-15945.47;;;0.30;90.74
65157;BME280;52745;49.794;18.258;2023-01-27T08:16:31;-15949.16;;;0.44;90.91
65157;BME280;52745;49.794;18.258;2023-01-27T08:18:58;-15947.53;;;0.38;90.27
65157;BME280;52745;49.794;18.258;2023-01-27T08:21:25;-15942.88;;;0.20;90.81
65157;BME280;52745;49.794;18.258;2023-01-27T08:23:53;-15944.78;;;0.28;91.45
65157;BME280;52745;49.794;18.258;2023-01-27T08:26:19;-15943.13;;;0.22;90.66
65157;BME280;52745;49.794;18.258;2023-01-27T08:28:46;-15942.31;;;0.18;90.11
65157;BME280;52745;49.794;18.258;2023-01-27T08:31:14;-15939.84;;;0.09;89.31
65157;BME280;52745;49.794;18.258;2023-01-27T08:33:44;-15938.75;;;0.05;89.88
65157;BME280;52745;49.794;18.258;2023-01-27T08:36:15;-15938.75;;;0.05;89.99
65157;BME280;52745;49.794;18.258;2023-01-27T08:38:43;-15940.13;;;0.10;89.35
65157;BME280;52745;49.794;18.258;2023-01-27T08:41:16;-15932.16;;;-0.19;89.57
65157;BME280;52745;49.794;18.258;2023-01-27T08:43:43;-15929.69;;;-0.29;90.08
65157;BME280;52745;49.794;18.258;2023-01-27T08:46:10;-15926.53;;;-0.40;90.15
65157;BME280;52745;49.794;18.258;2023-01-27T08:48:37;-15927.78;;;-0.36;90.34
65157;BME280;52745;49.794;18.258;2023-01-27T08:51:04;-15922.84;;;-0.54;90.36
65157;BME280;52745;49.794;18.258;2023-01-27T08:53:32;-15925.03;;;-0.46;90.34
65157;BME280;52745;49.794;18.258;2023-01-27T08:56:06;-15923.13;;;-0.53;90.80
65157;BME280;52745;49.794;18.258;2023-01-27T08:58:34;-15921.63;;;-0.59;90.25
65157;BME280;52745;49.794;18.258;2023-01-27T09:01:04;-15923.13;;;-0.53;89.66
65157;BME280;52745;49.794;18.258;2023-01-27T09:03:31;-15919.84;;;-0.66;90.06
65157;BME280;52745;49.794;18.258;2023-01-27T09:05:59;-15919.41;;;-0.67;89.53
65157;BME280;52745;49.794;18.258;2023-01-27T09:08:26;-15921.34;;;-0.60;89.58
65157;BME280;52745;49.794;18.258;2023-01-27T09:10:53;-15923.94;;;-0.50;88.93
65157;BME280;52745;49.794;18.258;2023-01-27T09:13:21;-15924.34;;;-0.49;88.42
65157;BME280;52745;49.794;18.258;2023-01-27T09:15:51;-15924.75;;;-0.47;88.16
65157;BME280;52745;49.794;18.258;2023-01-27T09:18:19;-15921.47;;;-0.59;87.70
65157;BME280;52745;49.794;18.258;2023-01-27T09:20:46;-15922.84;;;-0.54;87.50
65157;BME280;52745;49.794;18.258;2023-01-27T09:23:13;-15920.94;;;-0.61;88.11
65157;BME280;52745;49.794;18.258;2023-01-27T09:25:39;-15920.94;;;-0.61;88.26
65157;BME280;52745;49.794;18.258;2023-01-27T09:28:06;-15925.31;;;-0.45;88.35
65157;BME280;52745;49.794;18.258;2023-01-27T09:30:45;-15925.03;;;-0.46;89.11
65157;BME280;52745;49.794;18.258;2023-01-27T09:33:13;-15920.25;;;-0.64;89.96
65157;BME280;52745;49.794;18.258;2023-01-27T09:35:52;-15922.03;;;-0.57;90.26
65157;BME280;52745;49.794;18.258;2023-01-27T09:38:22;-15921.75;;;-0.58;90.67
65157;BME280;52745;49.794;18.258;2023-01-27T09:55:08;-15924.50;;;-0.48;92.24
65157;BME280;52745;49.794;18.258;2023-01-27T10:03:27;-15925.88;;;-0.43;92.13
65157;BME280;52745;49.794;18.258;2023-01-27T10:15:24;-15930.66;;;-0.25;92.66
65157;BME280;52745;49.794;18.258;2023-01-27T10:26:59;-15948.06;;;0.40;85.96
65157;BME280;52745;49.794;18.258;2023-01-27T10:29:42;-15951.09;;;0.51;82.51
65157;BME280;52745;49.794;18.258;2023-01-27T10:32:26;-15956.97;;;0.73;80.79
65157;BME280;52745;49.794;18.258;2023-01-27T10:45:37;-15960.13;;;0.85;75.50
65157;BME280;52745;49.794;18.258;2023-01-27T10:48:49;-15951.09;;;0.51;76.15
65157;BME280;52745;49.794;18.258;2023-01-27T10:51:29;-15949.16;;;0.44;76.21
65157;BME280;52745;49.794;18.258;2023-01-27T10:54:04;-15945.19;;;0.29;75.44
65157;BME280;52745;49.794;18.258;2023-01-27T10:59:36;-15945.06;;;0.29;76.25
65157;BME280;52745;49.794;18.258;2023-01-27T11:02:19;-15941.63;;;0.16;76.21
65157;BME280;52745;49.794;18.258;2023-01-27T11:04:58;-15943.97;;;0.25;74.39
65157;BME280;52745;49.794;18.258;2023-01-27T11:07:28;-15940.66;;;0.12;75.40
65157;BME280;52745;49.794;18.258;2023-01-27T11:10:04;-15939.44;;;0.08;75.20
65157;BME280;52745;49.794;18.258;2023-01-27T11:12:42;-15936.56;;;-0.03;75.55
65157;BME280;52745;49.794;18.258;2023-01-27T11:15:29;-15935.31;;;-0.08;75.72
65157;BME280;52745;49.794;18.258;2023-01-27T11:18:18;-15936.84;;;-0.02;74.92
65157;BME280;52745;49.794;18.258;2023-01-27T11:20:57;-15933.00;;;-0.16;74.86
65157;BME280;52745;49.794;18.258;2023-01-27T11:23:37;-15934.63;;;-0.10;74.87
65157;BME280;52745;49.794;18.258;2023-01-27T11:29:18;-15936.56;;;-0.03;75.60
65157;BME280;52745;49.794;18.258;2023-01-27T11:39:57;-15939.03;;;0.06;74.23
65157;BME280;52745;49.794;18.258;2023-01-27T11:42:29;-15940.53;;;0.12;73.92
65157;BME280;52745;49.794;18.258;2023-01-27T11:44:57;-15938.47;;;0.04;74.29
65157;BME280;52745;49.794;18.258;2023-01-27T11:47:32;-15936.28;;;-0.04;73.94
65157;BME280;52745;49.794;18.258;2023-01-27T11:50:00;-15937.94;;;0.02;74.59
65157;BME280;52745;49.794;18.258;2023-01-27T11:52:31;-15934.50;;;-0.11;74.04
65157;BME280;52745;49.794;18.258;2023-01-27T11:55:26;-15934.34;;;-0.11;73.66
65157;BME280;52745;49.794;18.258;2023-01-27T12:00:53;-15933.94;;;-0.13;73.91
65157;BME280;52745;49.794;18.258;2023-01-27T12:03:32;-15938.75;;;0.05;73.70
65157;BME280;52745;49.794;18.258;2023-01-27T12:06:38;-15940.41;;;0.11;74.83
65157;BME280;52745;49.794;18.258;2023-01-27T12:09:38;-15939.16;;;0.07;73.42
65157;BME280;52745;49.794;18.258;2023-01-27T12:14:36;-15937.09;;;-0.01;73.93
65157;BME280;52745;49.794;18.258;2023-01-27T12:17:04;-15940.41;;;0.11;74.67
65157;BME280;52745;49.794;18.258;2023-01-27T12:19:39;-15942.31;;;0.18;75.27
65157;BME280;52745;49.794;18.258;2023-01-27T12:22:31;-15947.53;;;0.38;74.24
65157;BME280;52745;49.794;18.258;2023-01-27T12:25:05;-15946.84;;;0.35;74.88
65157;BME280;52745;49.794;18.258;2023-01-27T12:27:56;-15947.25;;;0.37;74.91
65157;BME280;52745;49.794;18.258;2023-01-27T12:30:29;-15947.25;;;0.37;76.13
65157;BME280;52745;49.794;18.258;2023-01-27T12:32:57;-15946.56;;;0.34;76.94
65157;BME280;52745;49.794;18.258;2023-01-27T12:35:29;-15945.88;;;0.32;77.00
65157;BME280;52745;49.794;18.258;2023-01-27T12:38:03;-15947.38;;;0.37;76.83
65157;BME280;52745;49.794;18.258;2023-01-27T12:40:31;-15944.38;;;0.26;77.73
65157;BME280;52745;49.794;18.258;2023-01-27T12:43:18;-15942.03;;;0.17;77.98
65157;BME280;52745;49.794;18.258;2023-01-27T12:49:00;-15937.50;;;0.01;78.07
65157;BME280;52745;49.794;18.258;2023-01-27T12:51:56;-15938.47;;;0.04;78.17
65157;BME280;52745;49.794;18.258;2023-01-27T12:54:29;-15935.72;;;-0.06;78.80
65157;BME280;52745;49.794;18.258;2023-01-27T12:57:03;-15935.72;;;-0.06;78.98
65157;BME280;52745;49.794;18.258;2023-01-27T12:59:32;-15933.00;;;-0.16;79.60
65157;BME280;52745;49.794;18.258;2023-01-27T13:04:45;-15934.91;;;-0.09;78.99
65157;BME280;52745;49.794;18.258;2023-01-27T13:07:16;-15937.78;;;0.02;78.94
65157;BME280;52745;49.794;18.258;2023-01-27T13:09:55;-15938.63;;;0.05;78.53
65157;BME280;52745;49.794;18.258;2023-01-27T13:12:25;-15941.06;;;0.14;78.66
65157;BME280;52745;49.794;18.258;2023-01-27T13:14:57;-15940.41;;;0.11;78.55
65157;BME280;52745;49.794;18.258;2023-01-27T13:20:13;-15941.75;;;0.16;79.20
65157;BME280;52745;49.794;18.258;2023-01-27T13:23:01;-15945.47;;;0.30;78.69
65157;BME280;52745;49.794;18.258;2023-01-27T13:25:36;-15941.22;;;0.14;78.40
65157;BME280;52745;49.794;18.258;2023-01-27T13:28:06;-15939.72;;;0.09;78.41
65157;BME280;52745;49.794;18.258;2023-01-27T13:30:39;-15937.66;;;0.01;78.78
65157;BME280;52745;49.794;18.258;2023-01-27T13:36:07;-15936.13;;;-0.05;79.11
65157;BME280;52745;49.794;18.258;2023-01-27T13:41:24;-15934.34;;;-0.11;79.26
65157;BME280;52745;49.794;18.258;2023-01-27T13:44:00;-15932.16;;;-0.19;80.08
65157;BME280;52745;49.794;18.258;2023-01-27T13:46:36;-15928.19;;;-0.34;80.54
65157;BME280;52745;49.794;18.258;2023-01-27T13:51:59;-15932.16;;;-0.19;81.20
65157;BME280;52745;49.794;18.258;2023-01-27T13:54:26;-15926.97;;;-0.39;81.24
65157;BME280;52745;49.794;18.258;2023-01-27T13:57:00;-15928.06;;;-0.35;81.92
65157;BME280;52745;49.794;18.258;2023-01-27T14:07:44;-15930.78;;;-0.25;82.00
65157;BME280;52745;49.794;18.258;2023-01-27T14:18:20;-15934.09;;;-0.12;81.63
65157;BME280;52745;49.794;18.258;2023-01-27T14:27:00;-15932.84;;;-0.17;81.17
65157;BME280;52745;49.794;18.258;2023-01-27T14:46:16;-15928.59;;;-0.33;80.51
65157;BME280;52745;49.794;18.258;2023-01-27T14:51:51;-15927.22;;;-0.38;80.52
65157;BME280;52745;49.794;18.258;2023-01-27T15:06:01;-15928.88;;;-0.32;81.58
65157;BME280;52745;49.794;18.258;2023-01-27T15:25:22;-15932.84;;;-0.17;79.17
65157;BME280;52745;49.794;18.258;2023-01-27T15:27:56;-15929.44;;;-0.30;79.86
65157;BME280;52745;49.794;18.258;2023-01-27T15:30:34;-15930.78;;;-0.25;79.67
65157;BME280;52745;49.794;18.258;2023-01-27T15:39:17;-15930.38;;;-0.26;79.67
65157;BME280;52745;49.794;18.258;2023-01-27T15:44:28;-15934.63;;;-0.10;78.16
65157;BME280;52745;49.794;18.258;2023-01-27T15:49:46;-15939.84;;;0.09;77.50
65157;BME280;52745;49.794;18.258;2023-01-27T15:53:08;-15938.06;;;0.03;77.96
65157;BME280;52745;49.794;18.258;2023-01-27T15:55:31;-15936.56;;;-0.03;77.70
65157;BME280;52745;49.794;18.258;2023-01-27T15:58:05;-15936.69;;;-0.03;78.04
65157;BME280;52745;49.794;18.258;2023-01-27T16:00:40;-15934.63;;;-0.10;77.80
65157;BME280;52745;49.794;18.258;2023-01-27T16:03:20;-15935.47;;;-0.07;77.40